Time;durP1;ratioP1;P1;durP2;ratioP2;P2;SDS_P1;SDS_P2;PMS_P1;PMS_P2;Temp;Humidity;BMP_temperature;BMP_pressure;BME280_temperature;BME280_humidity;BME280_pressure;Samples;Min_cycle;Max_cycle;Signal;HPM_P1;HPM_P2
2022/08/04 00:01:49;;;;;;;6.95;3.10;;;;;;;21.69;100.00;100452.91;7673972;23;20028;-91
2022/08/04 00:05:03;;;;;;;3.97;2.35;;;;;;;21.64;100.00;100448.22;7674287;23;20056;-90
2022/08/04 00:08:34;;;;;;;3.58;2.58;;;;;;;21.63;100.00;100441.31;7700633;23;20016;-90
2022/08/04 00:11:40;;;;;;;5.22;2.47;;;;;;;21.64;100.00;100439.50;7524450;23;20026;-90
2022/08/04 00:14:51;;;;;;;3.35;2.10;;;;;;;21.59;100.00;100434.00;7500769;23;20346;-91
2022/08/04 00:17:59;;;;;;;5.05;2.75;;;;;;;21.52;100.00;100431.34;7547543;23;20141;-90
2022/08/04 00:21:05;;;;;;;4.00;2.55;;;;;;;21.50;100.00;100436.81;7547619;23;20033;-90
2022/08/04 00:24:11;;;;;;;5.05;2.40;;;;;;;21.46;100.00;100434.75;7521996;23;20033;-91
2022/08/04 00:27:15;;;;;;;3.15;2.20;;;;;;;21.42;100.00;100436.16;7547928;23;20034;-90
2022/08/04 00:30:16;;;;;;;5.60;2.63;;;;;;;21.41;100.00;100437.97;7500218;23;20109;-91
2022/08/04 00:33:19;;;;;;;3.22;2.63;;;;;;;21.38;100.00;100440.16;7547955;23;20841;-91
2022/08/04 00:36:22;;;;;;;3.08;2.30;;;;;;;21.30;100.00;100447.19;7523795;23;20285;-90
2022/08/04 00:39:24;;;;;;;6.63;2.78;;;;;;;21.22;100.00;100444.72;7548358;23;20501;-90
2022/08/04 00:42:33;;;;;;;4.13;2.35;;;;;;;21.14;100.00;100439.63;7548128;23;20060;-90
2022/08/04 00:46:12;;;;;;;4.63;2.50;;;;;;;21.05;100.00;100448.66;7524372;23;20503;-90
2022/08/04 00:49:30;;;;;;;3.60;2.22;;;;;;;21.00;100.00;100443.16;7669416;23;20033;-90
2022/08/04 00:53:08;;;;;;;5.68;2.70;;;;;;;20.95;100.00;100442.91;7699990;23;20024;-90
2022/08/04 00:56:29;;;;;;;3.38;2.25;;;;;;;20.91;100.00;100444.28;7670805;23;20454;-90
2022/08/04 01:00:05;;;;;;;4.70;2.50;;;;;;;20.88;100.00;100442.06;7699996;23;20029;-90
2022/08/04 01:03:30;;;;;;;4.50;2.35;;;;;;;20.88;100.00;100445.50;7673475;23;20098;-91
2022/08/04 01:07:12;;;;;;;4.55;2.50;;;;;;;20.85;100.00;100445.88;7699557;23;20032;-90
2022/08/04 01:10:51;;;;;;;4.65;2.50;;;;;;;20.84;100.00;100438.97;7698714;23;20020;-90
2022/08/04 01:14:31;;;;;;;5.63;2.63;;;;;;;20.86;100.00;100431.72;7697822;23;20031;-90
2022/08/04 01:17:47;;;;;;;4.93;2.92;;;;;;;20.83;100.00;100440.78;7700242;23;20024;-91
2022/08/04 01:21:11;;;;;;;4.30;2.72;;;;;;;20.78;100.00;100432.66;7673010;23;20021;-90
2022/08/04 01:24:41;;;;;;;5.75;2.92;;;;;;;20.75;100.00;100434.88;7699893;23;20025;-91
2022/08/04 01:28:23;;;;;;;4.20;2.97;;;;;;;20.68;100.00;100426.91;7700307;23;20522;-90
2022/08/04 01:32:06;;;;;;;4.75;2.85;;;;;;;20.62;100.00;100428.50;7698903;23;20021;-90
2022/08/04 01:35:20;;;;;;;7.32;2.80;;;;;;;20.58;100.00;100431.69;7671917;23;20028;-90
2022/08/04 01:38:43;;;;;;;5.32;3.20;;;;;;;20.55;100.00;100434.72;7675517;23;20031;-90
2022/08/04 01:41:45;;;;;;;5.60;2.90;;;;;;;20.51;100.00;100430.78;7697703;23;20047;-90
2022/08/04 01:45:05;;;;;;;4.55;3.00;;;;;;;20.51;100.00;100433.41;7698911;23;20016;-90
2022/08/04 01:48:08;;;;;;;3.83;2.75;;;;;;;20.49;100.00;100427.53;7698275;23;20021;-90
2022/08/04 01:51:11;;;;;;;5.53;3.08;;;;;;;20.47;100.00;100426.88;7672094;23;20761;-90
2022/08/04 01:54:16;;;;;;;4.35;2.72;;;;;;;20.42;100.00;100422.19;7672708;23;20024;-90
2022/08/04 01:57:19;;;;;;;5.32;2.92;;;;;;;20.41;100.00;100428.47;7671480;23;20023;-90
2022/08/04 02:01:06;;;;;;;7.57;2.97;;;;;;;20.43;100.00;100422.03;7699607;23;20443;-90
2022/08/04 02:04:18;;;;;;;7.18;3.10;;;;;;;20.45;100.00;100421.84;7698500;23;20021;-90
2022/08/04 02:07:42;;;;;;;4.25;2.80;;;;;;;20.46;100.00;100420.03;7699877;23;20642;-89
2022/08/04 02:11:02;;;;;;;7.57;3.47;;;;;;;20.45;100.00;100419.22;7672038;23;20339;-91
2022/08/04 02:14:44;;;;;;;4.03;2.70;;;;;;;20.44;100.00;100410.47;7699692;23;20030;-90
2022/08/04 02:18:09;;;;;;;5.55;3.13;;;;;;;20.48;100.00;100415.38;7699775;23;20123;-90
2022/08/04 02:21:13;;;;;;;5.30;3.22;;;;;;;20.50;100.00;100414.19;7699548;23;20052;-90
2022/08/04 02:24:17;;;;;;;8.85;3.70;;;;;;;20.49;100.00;100403.84;7699786;23;20043;-90
2022/08/04 02:27:39;;;;;;;6.10;3.28;;;;;;;20.49;100.00;100406.50;7694566;23;20118;-90
2022/08/04 02:31:25;;;;;;;4.97;2.65;;;;;;;20.49;100.00;100399.41;7691610;23;20027;-90
2022/08/04 02:34:53;;;;;;;8.43;3.80;;;;;;;20.47;100.00;100398.81;7698036;23;20024;-90
2022/08/04 02:38:33;;;;;;;6.20;3.53;;;;;;;20.51;100.00;100396.59;7698967;23;20021;-90
2022/08/04 02:41:35;;;;;;;9.10;3.35;;;;;;;20.51;100.00;100391.34;7696992;23;20047;-90
2022/08/04 02:44:38;;;;;;;5.55;3.15;;;;;;;20.49;100.00;100396.78;7695969;23;20520;-90
2022/08/04 02:47:42;;;;;;;6.50;3.58;;;;;;;20.46;100.00;100402.41;7697645;23;20079;-90
2022/08/04 02:51:05;;;;;;;6.57;3.42;;;;;;;20.46;100.00;100397.16;7697917;23;20017;-90
2022/08/04 02:54:07;;;;;;;5.43;3.67;;;;;;;20.46;100.00;100393.72;7693205;23;20025;-90
2022/08/04 02:57:12;;;;;;;6.30;3.35;;;;;;;20.42;100.00;100391.47;7670866;23;20028;-90
2022/08/04 03:00:17;;;;;;;12.18;3.72;;;;;;;20.40;100.00;100397.94;7669352;23;20046;-90
2022/08/04 03:03:36;;;;;;;7.60;3.53;;;;;;;20.34;100.00;100390.78;7644947;23;20029;-90
2022/08/04 03:06:53;;;;;;;5.82;3.47;;;;;;;20.26;100.00;100383.84;7670521;23;20012;-90
2022/08/04 03:10:32;;;;;;;8.15;3.85;;;;;;;20.22;100.00;100388.66;7699237;23;20024;-90
2022/08/04 03:13:55;;;;;;;6.28;3.03;;;;;;;20.17;100.00;100374.44;7701499;23;20016;-90
2022/08/04 03:17:16;;;;;;;5.75;2.70;;;;;;;20.10;100.00;100384.06;7700779;23;20514;-90
2022/08/04 03:20:33;;;;;;;6.18;3.17;;;;;;;20.05;100.00;100381.19;7674915;23;20031;-90
2022/08/04 03:24:13;;;;;;;6.90;3.35;;;;;;;19.97;100.00;100382.13;7672942;23;20027;-90
2022/08/04 03:28:05;;;;;;;6.90;3.58;;;;;;;19.88;100.00;100381.44;7651354;23;20141;-90
2022/08/04 03:31:22;;;;;;;4.93;3.50;;;;;;;19.83;100.00;100389.06;7549654;23;20038;-89
2022/08/04 03:35:01;;;;;;;9.30;3.40;;;;;;;19.78;100.00;100384.38;7550519;23;20536;-90
2022/08/04 03:38:28;;;;;;;7.27;3.70;;;;;;;19.75;100.00;100374.22;7550186;23;20066;-90
2022/08/04 03:41:54;;;;;;;5.75;3.70;;;;;;;19.75;100.00;100374.22;7525917;23;20026;-90
2022/08/04 03:45:51;;;;;;;6.85;3.65;;;;;;;19.78;100.00;100373.06;7549306;23;20026;-90
2022/08/04 03:49:11;;;;;;;5.60;3.35;;;;;;;19.75;100.00;100378.66;7552530;23;20042;-90
2022/08/04 03:56:50;;;;;;;7.93;3.55;;;;;;;19.71;100.00;100375.59;7703376;23;20052;-90
2022/08/04 04:00:13;;;;;;;12.70;3.65;;;;;;;19.72;100.00;100384.28;7704023;23;20027;-90
2022/08/04 04:03:30;;;;;;;7.10;3.95;;;;;;;19.73;100.00;100383.28;7702384;23;20099;-90
2022/08/04 04:06:46;;;;;;;7.05;4.07;;;;;;;19.75;100.00;100381.28;7703178;23;20584;-90
2022/08/04 04:10:37;;;;;;;11.93;3.85;;;;;;;19.78;100.00;100378.31;7678453;23;20031;-90
2022/08/04 04:13:42;;;;;;;7.13;3.80;;;;;;;19.79;100.00;100383.34;7702781;23;20444;-89
2022/08/04 04:17:07;;;;;;;6.30;3.78;;;;;;;19.81;100.00;100380.56;7675964;23;20490;-90
2022/08/04 04:20:15;;;;;;;7.70;3.53;;;;;;;19.83;100.00;100383.00;7676109;23;20025;-90
2022/08/04 04:24:01;;;;;;;6.85;3.20;;;;;;;19.81;100.00;100377.94;7702483;23;20457;-90
2022/08/04 04:27:22;;;;;;;8.13;2.90;;;;;;;19.80;100.00;100378.94;7527282;23;20041;-90
2022/08/04 04:30:37;;;;;;;5.57;2.95;;;;;;;19.80;100.00;100378.94;7526825;23;20030;-90
2022/08/04 04:33:57;;;;;;;6.50;2.80;;;;;;;19.79;100.00;100375.47;7528761;23;20030;-90
2022/08/04 04:37:21;;;;;;;4.00;2.97;;;;;;;19.79;100.00;100374.66;7552280;23;20038;-89
2022/08/04 04:40:51;;;;;;;8.25;2.72;;;;;;;19.79;100.00;100369.41;7551790;23;20670;-90
2022/08/04 04:44:07;;;;;;;6.67;3.00;;;;;;;19.79;100.00;100378.09;7552324;23;20105;-90
2022/08/04 04:47:47;;;;;;;5.05;2.80;;;;;;;19.78;100.00;100371.22;7551289;23;20101;-89
2022/08/04 04:51:37;;;;;;;4.82;2.80;;;;;;;19.82;100.00;100376.91;7552360;23;20104;-90
2022/08/04 04:54:45;;;;;;;4.03;2.65;;;;;;;19.82;100.00;100374.28;7549846;23;20547;-90
2022/08/04 04:57:51;;;;;;;5.35;2.75;;;;;;;19.86;100.00;100378.19;7503481;23;20502;-90
2022/08/04 05:01:30;;;;;;;5.15;2.78;;;;;;;19.91;100.00;100375.81;7551399;23;20026;-90
2022/08/04 05:04:47;;;;;;;4.78;3.00;;;;;;;19.97;100.00;100369.81;7689989;23;20039;-90
2022/08/04 05:08:08;;;;;;;4.10;3.30;;;;;;;20.05;100.00;100373.31;7702551;23;20675;-90
2022/08/04 05:11:53;;;;;;;;;;;;;;;20.15;100.00;100365.97;7703539;23;20024;-90
2022/08/04 05:14:58;;;;;;;5.82;2.80;;;;;;;20.25;100.00;100370.88;7703694;23;19916;-91
2022/08/04 05:18:05;;;;;;;8.07;3.53;;;;;;;20.32;100.00;100371.75;7703025;23;20116;-90
2022/08/04 05:21:37;;;;;;;5.68;3.03;;;;;;;20.37;100.00;100361.47;7702880;23;20023;-90
2022/08/04 05:24:43;;;;;;;6.05;3.38;;;;;;;20.44;100.00;100364.97;7702917;23;20020;-90
2022/08/04 05:27:50;;;;;;;5.88;3.72;;;;;;;20.50;100.00;100361.59;7675871;23;20020;-90
2022/08/04 05:31:00;;;;;;;6.18;3.60;;;;;;;20.56;100.00;100365.31;7700606;23;20475;-90
2022/08/04 05:34:29;;;;;;;8.00;3.33;;;;;;;20.65;100.00;100361.53;7675180;23;20028;-90
2022/08/04 05:37:34;;;;;;;6.10;3.08;;;;;;;20.77;100.00;100354.75;7702507;23;20028;-91
2022/08/04 05:40:38;;;;;;;9.85;3.10;;;;;;;20.88;100.00;100356.03;7675152;23;20023;-90
2022/08/04 05:43:43;;;;;;;7.30;3.70;;;;;;;20.99;100.00;100354.66;7651708;23;20047;-91
2022/08/04 05:46:48;;;;;;;8.10;2.92;;;;;;;21.11;100.00;100360.22;7701996;23;20036;-90
2022/08/04 05:49:56;;;;;;;5.82;3.10;;;;;;;21.23;100.00;100358.66;7675556;23;20324;-90
2022/08/04 05:53:05;;;;;;;3.50;2.63;;;;;;;21.34;100.00;100352.00;7701942;23;20068;-91
2022/08/04 05:56:08;;;;;;;6.95;2.95;;;;;;;21.47;100.00;100352.13;7702772;23;20040;-91
2022/08/04 05:59:11;;;;;;;4.75;2.80;;;;;;;21.62;100.00;100350.13;7702774;23;20024;-91
2022/08/04 06:02:16;;;;;;;4.70;2.60;;;;;;;21.80;100.00;100346.13;7675692;23;20575;-91
2022/08/04 06:05:19;;;;;;;4.40;2.80;;;;;;;21.95;100.00;100346.75;7676878;23;20017;-91
2022/08/04 06:08:24;;;;;;;4.72;3.05;;;;;;;22.05;100.00;100347.19;7702859;23;20020;-91
2022/08/04 06:11:28;;;;;;;5.93;2.63;;;;;;;22.09;100.00;100342.34;7703123;23;20044;-92
2022/08/04 06:14:46;;;;;;;5.18;2.85;;;;;;;22.10;100.00;100339.47;7701794;23;20301;-91
2022/08/04 06:18:18;;;;;;;6.50;3.80;;;;;;;22.15;100.00;100344.16;7701905;23;20328;-91
2022/08/04 06:21:47;;;;;;;6.17;2.73;;;;;;;22.21;100.00;100342.56;7701974;23;20390;-91
2022/08/04 06:24:54;;;;;;;6.60;2.90;;;;;;;22.30;100.00;100333.44;7651003;23;20198;-91
2022/08/04 06:28:00;;;;;;;6.80;3.10;;;;;;;22.44;100.00;100331.63;7702239;23;20023;-91
2022/08/04 06:31:04;;;;;;;3.30;2.85;;;;;;;22.60;100.00;100330.38;7675060;23;20643;-91
2022/08/04 06:34:32;;;;;;;8.00;3.15;;;;;;;22.80;99.33;100328.50;7702080;23;20028;-91
2022/08/04 06:37:36;;;;;;;5.53;3.30;;;;;;;23.04;97.69;100331.56;7701318;23;20021;-91
2022/08/04 06:40:48;;;;;;;5.00;3.00;;;;;;;23.35;95.04;100323.72;7652104;23;20095;-91
2022/08/04 06:43:58;;;;;;;4.85;3.50;;;;;;;23.62;92.75;100327.00;7703002;23;20137;-91
2022/08/04 06:47:11;;;;;;;5.28;2.92;;;;;;;23.81;87.84;100327.97;7702455;23;20023;-91
2022/08/04 06:50:15;;;;;;;9.02;3.20;;;;;;;23.90;87.72;100319.75;7703880;23;20027;-91
2022/08/04 06:53:37;;;;;;;5.35;3.17;;;;;;;23.92;87.92;100315.06;7656525;23;20039;-91
2022/08/04 06:56:43;;;;;;;7.15;3.30;;;;;;;23.89;87.20;100315.50;7677459;23;20020;-91
2022/08/04 06:59:48;;;;;;;4.85;3.00;;;;;;;23.93;86.68;100319.34;7677430;23;20044;-91
2022/08/04 07:02:52;;;;;;;3.20;2.90;;;;;;;23.99;85.80;100315.84;7703565;23;20030;-91
2022/08/04 07:05:57;;;;;;;6.85;3.03;;;;;;;24.03;84.56;100317.84;7703183;23;20079;-91
2022/08/04 07:09:07;;;;;;;3.22;2.85;;;;;;;24.06;85.27;100316.59;7703364;23;20042;-91
2022/08/04 07:12:10;;;;;;;4.85;2.92;;;;;;;24.14;83.23;100326.91;7703180;23;20023;-92
2022/08/04 07:15:13;;;;;;;5.43;3.03;;;;;;;24.19;83.04;100324.41;7703988;23;20289;-91
2022/08/04 07:18:18;;;;;;;4.07;3.20;;;;;;;24.29;82.51;100321.28;7651311;23;20486;-91
2022/08/04 07:21:22;;;;;;;2.80;2.60;;;;;;;24.44;81.65;100313.81;7703662;23;20023;-92
2022/08/04 07:24:31;;;;;;;3.85;3.10;;;;;;;24.75;78.99;100311.34;7702710;23;20024;-90
2022/08/04 07:27:34;;;;;;;5.60;3.13;;;;;;;25.14;77.69;100313.53;7703049;23;20028;-91
2022/08/04 07:30:51;;;;;;;4.60;3.10;;;;;;;25.47;74.33;100307.03;7679820;23;20542;-92
2022/08/04 07:33:55;;;;;;;5.13;2.78;;;;;;;25.82;72.81;100303.69;7677936;23;20020;-92
2022/08/04 07:37:18;;;;;;;14.55;4.40;;;;;;;26.14;70.30;100306.06;7655992;23;20024;-91
2022/08/04 07:40:40;;;;;;;10.43;3.70;;;;;;;26.24;67.85;100300.19;7703850;23;20092;-92
2022/08/04 07:43:45;;;;;;;4.65;2.95;;;;;;;26.13;67.18;100299.94;7675141;23;20074;-91
2022/08/04 07:46:53;;;;;;;4.70;3.00;;;;;;;25.90;67.74;100298.06;7675921;23;20023;-92
2022/08/04 07:50:01;;;;;;;5.85;3.17;;;;;;;25.77;66.97;100307.00;7675775;23;20958;-92
2022/08/04 07:53:04;;;;;;;4.40;2.75;;;;;;;25.75;68.30;100309.06;7702620;23;20531;-92
2022/08/04 07:56:27;;;;;;;4.30;2.78;;;;;;;25.78;65.60;100297.22;7702820;23;20130;-91
2022/08/04 07:59:29;;;;;;;3.83;2.78;;;;;;;25.87;67.13;100295.06;7675558;23;20024;-92
2022/08/04 08:02:41;;;;;;;3.30;2.88;;;;;;;26.02;66.86;100297.28;7702375;23;20099;-92
2022/08/04 08:05:58;;;;;;;6.90;2.97;;;;;;;26.14;67.36;100296.25;7701465;23;20175;-92
2022/08/04 08:09:20;;;;;;;5.85;2.90;;;;;;;26.23;61.47;100294.06;7701035;23;20024;-91
2022/08/04 08:12:29;;;;;;;5.95;3.60;;;;;;;26.35;60.78;100281.59;7702089;23;20020;-91
2022/08/04 08:15:57;;;;;;;3.88;2.58;;;;;;;26.53;59.76;100290.50;7669082;23;20024;-92
2022/08/04 08:19:02;;;;;;;4.78;3.05;;;;;;;26.61;59.76;100287.53;7701398;23;20137;-91
2022/08/04 08:22:13;;;;;;;6.32;2.92;;;;;;;26.67;57.99;100280.47;7675061;23;20032;-91
2022/08/04 08:25:40;;;;;;;3.60;3.00;;;;;;;26.76;56.15;100279.88;7675553;23;20473;-92
2022/08/04 08:28:54;;;;;;;5.75;2.95;;;;;;;26.84;57.30;100273.38;7675311;23;20021;-92
2022/08/04 08:32:02;;;;;;;4.03;3.05;;;;;;;26.93;57.25;100271.97;7674588;23;20032;-91
2022/08/04 08:35:09;;;;;;;6.18;2.83;;;;;;;27.01;57.64;100271.59;7674891;23;20029;-92
2022/08/04 08:38:14;;;;;;;4.15;2.65;;;;;;;27.16;55.07;100268.44;7649756;23;20029;-94
2022/08/04 08:41:39;;;;;;;3.50;2.80;;;;;;;27.34;52.99;100269.31;7674808;23;20027;-94
2022/08/04 08:45:06;;;;;;;6.40;2.58;;;;;;;27.56;53.36;100270.25;7701362;23;20024;-94
2022/08/04 08:48:45;;;;;;;3.55;2.65;;;;;;;27.97;48.98;100270.91;7700246;23;20025;-92
2022/08/04 08:52:44;;;;;;;4.85;2.53;;;;;;;28.26;51.51;100268.97;7674560;23;20340;-92
2022/08/04 08:56:40;;;;;;;6.05;2.65;;;;;;;28.42;49.17;100259.34;7700303;23;20032;-93
2022/08/04 09:00:04;;;;;;;3.88;2.47;;;;;;;28.77;49.18;100264.34;7700385;23;20024;-92
2022/08/04 09:03:35;;;;;;;3.88;2.70;;;;;;;29.14;47.65;100266.38;7675424;23;20020;-92
2022/08/04 09:07:03;;;;;;;3.88;2.30;;;;;;;29.40;46.88;100262.09;7674893;23;20021;-92
2022/08/04 09:10:27;;;;;;;4.50;3.08;;;;;;;29.63;46.44;100260.16;7673614;23;20031;-93
2022/08/04 09:13:53;;;;;;;3.75;3.30;;;;;;;29.80;46.60;100260.06;7699510;23;20036;-93
2022/08/04 09:17:09;;;;;;;7.20;3.10;;;;;;;29.79;46.02;100261.94;7699802;23;20021;-93
2022/08/04 09:20:32;;;;;;;6.32;3.22;;;;;;;29.80;47.73;100249.38;7700026;23;20016;-93
2022/08/04 09:24:12;;;;;;;5.63;3.00;;;;;;;29.77;45.84;100248.03;7674225;23;20079;-93
2022/08/04 09:27:42;;;;;;;;;;;;;;;29.70;45.88;100243.97;7679433;23;20428;-93
2022/08/04 09:30:51;;;;;;;3.33;2.88;;;;;;;29.58;46.66;100246.78;7674756;23;19923;-92
2022/08/04 09:34:12;;;;;;;3.83;2.58;;;;;;;29.51;46.95;100240.84;7675847;23;20020;-89
2022/08/04 09:37:50;;;;;;;8.30;2.95;;;;;;;29.57;46.10;100245.97;7702368;23;20106;-89
2022/08/04 09:41:20;;;;;;;3.35;2.45;;;;;;;29.87;45.71;100241.19;7550829;23;20054;-89
2022/08/04 09:45:01;;;;;;;4.38;2.85;;;;;;;30.13;41.57;100239.47;7550767;23;20041;-89
2022/08/04 09:48:14;;;;;;;3.08;2.80;;;;;;;30.36;43.80;100233.75;7528041;23;20027;-89
2022/08/04 09:51:30;;;;;;;2.97;2.78;;;;;;;30.56;42.83;100235.72;7526604;23;20030;-90
2022/08/04 09:55:42;;;;;;;4.38;3.00;;;;;;;30.76;43.32;100228.81;7531072;23;20443;-90
2022/08/04 09:59:22;;;;;;;3.30;2.85;;;;;;;30.99;43.08;100225.72;7478506;23;20156;-90
2022/08/04 10:02:27;;;;;;;4.10;2.67;;;;;;;31.04;41.80;100232.94;7478178;23;20541;-89
2022/08/04 10:06:07;;;;;;;4.63;2.65;;;;;;;31.17;39.82;100226.28;7455224;23;20330;-90
2022/08/04 10:09:16;;;;;;;;;;;;;;;31.27;39.43;100228.97;7479480;23;20031;-91
2022/08/04 10:12:40;;;;;;;3.25;2.67;;;;;;;31.66;38.48;100233.81;7479782;23;20064;-90
2022/08/04 10:15:54;;;;;;;5.68;2.70;;;;;;;31.71;37.89;100223.09;7479810;23;20034;-90
2022/08/04 10:19:14;;;;;;;3.05;2.85;;;;;;;31.77;39.50;100227.38;7585392;23;20165;-90
2022/08/04 10:22:24;;;;;;;2.67;2.47;;;;;;;31.85;37.78;100226.84;7591087;23;20149;-90
2022/08/04 10:25:54;;;;;;;4.93;2.30;;;;;;;31.92;39.21;100213.94;7591290;23;20029;-89
2022/08/04 10:29:14;;;;;;;2.97;2.70;;;;;;;32.09;38.44;100223.59;7590853;23;20030;-90
2022/08/04 10:32:25;;;;;;;3.25;2.95;;;;;;;32.22;37.97;100217.66;7638336;23;20036;-90
2022/08/04 10:35:31;;;;;;;4.78;2.97;;;;;;;32.18;39.89;100217.41;7705793;23;20295;-89
2022/08/04 10:39:00;;;;;;;3.10;2.90;;;;;;;32.23;38.40;100213.13;7706678;23;20024;-89
2022/08/04 10:42:19;;;;;;;3.53;2.40;;;;;;;32.46;37.74;100206.31;7706175;23;20021;-89
2022/08/04 10:45:26;;;;;;;3.22;3.00;;;;;;;32.70;36.42;100201.94;7705398;23;20013;-90
2022/08/04 10:48:41;;;;;;;3.42;2.30;;;;;;;32.85;36.23;100198.38;7680054;23;20017;-89
2022/08/04 10:52:16;;;;;;;2.92;2.72;;;;;;;32.98;37.43;100199.63;7706274;23;20095;-89
2022/08/04 10:55:46;;;;;;;3.20;2.35;;;;;;;33.32;35.64;100193.53;7602266;23;20034;-90
2022/08/04 10:59:14;;;;;;;3.97;2.70;;;;;;;34.01;34.48;100196.88;7605783;23;20036;-89
2022/08/04 11:02:36;;;;;;;8.77;2.65;;;;;;;34.52;32.67;100199.78;7602058;23;20450;-90
2022/08/04 11:05:48;;;;;;;2.60;2.40;;;;;;;34.61;32.66;100205.38;7601856;23;20053;-90
2022/08/04 11:08:54;;;;;;;3.08;2.00;;;;;;;34.53;31.85;100197.88;7627137;23;20057;-90
2022/08/04 11:12:17;;;;;;;2.47;2.08;;;;;;;34.62;31.25;100196.19;7603165;23;20439;-90
2022/08/04 11:15:54;;;;;;;3.03;2.00;;;;;;;34.53;31.84;100196.03;7627620;23;20025;-90
2022/08/04 11:19:30;;;;;;;2.63;2.30;;;;;;;34.22;31.71;100195.59;7625701;23;20142;-91
2022/08/04 11:23:13;;;;;;;3.35;2.33;;;;;;;34.02;32.67;100198.50;7626880;23;20029;-91
2022/08/04 11:26:20;;;;;;;2.40;2.20;;;;;;;33.87;33.72;100196.78;7626921;23;20040;-91
2022/08/04 11:30:08;;;;;;;2.65;2.20;;;;;;;33.87;33.34;100191.41;7601902;23;20512;-91
2022/08/04 11:33:33;;;;;;;5.15;2.40;;;;;;;33.89;31.80;100189.25;7690466;23;20074;-91
2022/08/04 11:36:55;;;;;;;2.45;2.28;;;;;;;33.66;32.22;100183.56;7703387;23;20016;-91
2022/08/04 11:40:12;;;;;;;5.18;2.50;;;;;;;33.52;35.28;100187.97;7704557;23;20027;-91
2022/08/04 11:43:34;;;;;;;3.97;2.55;;;;;;;33.35;33.59;100188.38;7704160;23;20440;-90
2022/08/04 11:47:02;;;;;;;6.50;2.33;;;;;;;33.10;35.20;100184.03;7704090;23;20036;-90
2022/08/04 11:50:16;;;;;;;4.55;2.40;;;;;;;33.35;36.43;100174.16;7677408;23;20020;-91
2022/08/04 11:53:23;;;;;;;2.83;2.28;;;;;;;33.85;32.65;100180.16;7704148;23;20051;-91
2022/08/04 11:56:35;;;;;;;2.40;2.25;;;;;;;34.31;32.52;100183.13;7679306;23;20043;-91
2022/08/04 11:59:41;;;;;;;5.65;2.67;;;;;;;34.82;35.56;100183.56;7704483;23;20176;-91
2022/08/04 12:03:20;;;;;;;3.00;2.10;;;;;;;35.23;31.86;100186.44;7675913;23;20020;-91
2022/08/04 12:06:48;;;;;;;3.15;2.17;;;;;;;35.58;31.89;100186.91;7676948;23;20325;-91
2022/08/04 12:10:14;;;;;;;2.40;2.20;;;;;;;35.93;31.06;100187.38;7703695;23;20016;-91
2022/08/04 12:13:43;;;;;;;4.13;2.28;;;;;;;36.25;30.76;100188.38;7703886;23;20079;-91
2022/08/04 12:16:56;;;;;;;;;;;;;;;36.14;30.19;100175.09;7677702;23;20020;-90
2022/08/04 12:20:05;;;;;;;2.22;2.03;;;;;;;35.84;31.05;100181.09;7702763;23;20006;-90
2022/08/04 12:23:34;;;;;;;3.35;2.28;;;;;;;36.17;30.60;100131.38;7682581;23;20025;-91
2022/08/04 12:26:42;;;;;;;2.58;1.98;;;;;;;36.34;28.86;100175.78;7676661;23;20036;-90
2022/08/04 12:29:45;;;;;;;2.95;2.20;;;;;;;36.82;27.97;100181.47;7675425;23;20310;-91
2022/08/04 12:33:46;;;;;;;2.30;2.10;;;;;;;37.08;29.55;100178.19;7702437;23;20020;-91
2022/08/04 12:37:25;;;;;;;3.13;2.00;;;;;;;37.18;28.05;100169.84;7702654;23;20398;-90
2022/08/04 12:40:35;;;;;;;2.40;1.92;;;;;;;37.48;26.94;100172.84;7702856;23;20412;-90
2022/08/04 12:43:41;;;;;;;2.75;2.45;;;;;;;37.73;28.15;100174.09;7668826;23;20033;-90
2022/08/04 12:46:45;;;;;;;2.38;1.80;;;;;;;37.84;26.49;100163.81;7700652;23;20025;-92
2022/08/04 12:49:49;;;;;;;2.15;1.95;;;;;;;37.22;26.61;100160.03;7701044;23;20032;-92
2022/08/04 12:53:10;;;;;;;2.15;1.83;;;;;;;36.62;28.01;100168.44;7677393;23;20020;-91
2022/08/04 12:56:26;;;;;;;3.45;2.30;;;;;;;35.96;28.57;100163.31;7701751;23;20071;-91
2022/08/04 12:59:28;;;;;;;2.58;2.30;;;;;;;35.60;29.84;100165.88;7702046;23;20027;-91
2022/08/04 13:02:35;;;;;;;3.35;2.30;;;;;;;35.37;30.88;100163.03;7701042;23;20503;-91
2022/08/04 13:05:40;;;;;;;2.78;2.58;;;;;;;35.22;32.38;100166.00;7701139;23;20029;-91
2022/08/04 13:08:45;;;;;;;3.45;2.58;;;;;;;35.04;34.28;100156.03;7649667;23;20279;-91
2022/08/04 13:11:53;;;;;;;2.58;2.33;;;;;;;34.87;33.95;100149.31;7700151;23;20016;-91
2022/08/04 13:15:11;;;;;;;2.78;2.42;;;;;;;35.00;33.44;100147.75;7700177;23;20023;-91
2022/08/04 13:18:43;;;;;;;3.33;2.30;;;;;;;35.01;34.33;100140.50;7699844;23;20024;-90
2022/08/04 13:21:46;;;;;;;5.43;2.60;;;;;;;35.18;31.56;100143.47;7675212;23;20452;-91
2022/08/04 13:25:03;;;;;;;3.33;2.22;;;;;;;35.84;34.11;100148.75;7674320;23;20399;-91
2022/08/04 13:28:27;;;;;;;2.83;2.42;;;;;;;36.70;30.50;100131.88;7677247;23;20039;-91
2022/08/04 13:31:30;;;;;;;3.03;2.80;;;;;;;36.97;30.10;100142.53;7701368;23;20451;-90
2022/08/04 13:34:41;;;;;;;2.50;2.30;;;;;;;37.11;28.81;100133.59;7650385;23;20352;-91
2022/08/04 13:37:51;;;;;;;3.88;2.20;;;;;;;36.94;28.85;100132.34;7701345;23;20480;-91
2022/08/04 13:41:06;;;;;;;2.65;2.35;;;;;;;36.52;30.09;100139.78;7700804;23;20027;-91
2022/08/04 13:44:10;;;;;;;2.78;2.00;;;;;;;36.16;30.05;100137.09;7700673;23;20028;-91
2022/08/04 13:47:32;;;;;;;4.00;2.30;;;;;;;36.11;32.80;100129.91;7673444;23;20102;-91
2022/08/04 13:50:37;;;;;;;2.97;2.38;;;;;;;36.52;28.68;100133.59;7700443;23;20075;-91
2022/08/04 13:53:41;;;;;;;6.53;2.20;;;;;;;37.21;28.80;100128.72;7700863;23;20023;-91
2022/08/04 13:56:54;;;;;;;1.92;1.83;;;;;;;37.74;27.04;100123.56;7699547;23;20020;-90
2022/08/04 14:00:03;;;;;;;2.22;1.88;;;;;;;38.06;25.98;100125.09;7699520;23;20016;-91
2022/08/04 14:03:12;;;;;;;4.22;1.95;;;;;;;37.76;25.64;100122.13;7698022;23;20143;-92
2022/08/04 14:06:35;;;;;;;1.83;1.73;;;;;;;37.35;26.64;100117.06;7698379;23;20044;-91
2022/08/04 14:09:38;;;;;;;5.38;2.00;;;;;;;37.20;27.70;100107.47;7699988;23;20633;-92
2022/08/04 14:13:04;;;;;;;2.10;1.90;;;;;;;36.71;28.72;100101.09;7699126;23;20095;-91
2022/08/04 14:16:20;;;;;;;4.65;1.83;;;;;;;36.15;28.78;100100.44;7670109;23;20017;-91
2022/08/04 14:19:22;;;;;;;3.53;1.90;;;;;;;36.44;29.00;100094.66;7670159;23;20025;-91
2022/08/04 14:22:33;;;;;;;;;;;;;;;36.90;27.39;100104.41;7670147;23;20024;-91
2022/08/04 14:25:35;;;;;;;3.90;1.90;;;;;;;37.35;26.56;100093.53;7674076;23;19926;-92
2022/08/04 14:28:38;;;;;;;3.00;2.35;;;;;;;37.25;27.84;100104.63;7673280;23;20029;-91
2022/08/04 14:32:05;;;;;;;3.30;1.77;;;;;;;37.70;27.11;100089.06;7700703;23;20067;-92
2022/08/04 14:35:14;;;;;;;3.10;1.90;;;;;;;37.44;26.43;100096.25;7701383;23;20020;-91
2022/08/04 14:38:17;;;;;;;2.60;1.77;;;;;;;36.90;27.13;100099.00;7701575;23;20021;-91
2022/08/04 14:41:28;;;;;;;2.15;1.73;;;;;;;36.45;26.97;100096.28;7696398;23;20414;-91
2022/08/04 14:44:30;;;;;;;3.17;1.95;;;;;;;36.32;27.84;100091.72;7699932;23;20398;-91
2022/08/04 14:47:46;;;;;;;3.00;1.65;;;;;;;36.14;26.59;100094.25;7674264;23;20024;-91
2022/08/04 14:50:53;;;;;;;2.67;1.80;;;;;;;36.55;26.38;100104.13;7675366;23;20478;-90
2022/08/04 14:53:56;;;;;;;1.88;1.77;;;;;;;37.11;26.05;100090.41;7701065;23;20023;-91
2022/08/04 14:57:07;;;;;;;3.75;1.90;;;;;;;37.32;25.95;100096.06;7703108;23;20092;-90
2022/08/04 15:00:10;;;;;;;5.25;1.60;;;;;;;37.51;25.98;100099.31;7700665;23;20021;-91
2022/08/04 15:03:20;;;;;;;2.10;1.70;;;;;;;37.44;25.42;100097.09;7699186;23;20021;-91
2022/08/04 15:06:27;;;;;;;1.88;1.77;;;;;;;36.97;26.20;100096.66;7676212;23;20040;-91
2022/08/04 15:09:31;;;;;;;2.70;1.70;;;;;;;36.44;26.66;100105.44;7700625;23;20025;-91
2022/08/04 15:12:35;;;;;;;3.78;1.50;;;;;;;35.98;27.31;100111.84;7703038;23;20080;-90
2022/08/04 15:15:42;;;;;;;5.68;2.10;;;;;;;35.61;28.44;100102.88;7674781;23;20020;-90
2022/08/04 15:19:02;;;;;;;3.53;1.90;;;;;;;35.22;29.31;100101.41;7702597;23;20465;-90